createdAt,value
2023-02-27T00:01:06.162Z,66.00
2023-02-27T00:03:36.833Z,65.89
2023-02-27T00:06:06.993Z,65.69
2023-02-27T00:08:35.293Z,65.56
2023-02-27T00:11:03.358Z,65.56
2023-02-27T00:13:32.173Z,65.76
2023-02-27T00:16:02.368Z,65.34
2023-02-27T00:18:32.700Z,65.68
2023-02-27T00:21:01.744Z,66.24
2023-02-27T00:23:32.993Z,66.10
2023-02-27T00:26:02.718Z,66.20
2023-02-27T00:28:32.145Z,66.40
2023-02-27T00:33:57.942Z,66.14
2023-02-27T00:36:31.137Z,65.69
2023-02-27T00:39:01.570Z,65.71
2023-02-27T00:41:29.879Z,65.97
2023-02-27T00:43:58.466Z,65.93
2023-02-27T00:46:26.521Z,66.00
2023-02-27T00:48:56.662Z,66.21
2023-02-27T00:51:28.204Z,66.22
2023-02-27T00:53:56.808Z,65.75
2023-02-27T00:56:27.758Z,65.70
2023-02-27T00:58:56.098Z,66.28
2023-02-27T01:01:26.425Z,66.04
2023-02-27T01:03:55.211Z,66.00
2023-02-27T01:06:27.357Z,66.06
2023-02-27T01:09:01.896Z,66.40
2023-02-27T01:11:33.861Z,65.59
2023-02-27T01:14:02.114Z,66.08
2023-02-27T01:16:32.543Z,65.43
2023-02-27T01:19:01.356Z,66.16
2023-02-27T01:21:30.675Z,66.52
2023-02-27T01:23:59.268Z,66.56
2023-02-27T01:26:29.118Z,65.85
2023-02-27T01:28:59.015Z,66.22
2023-02-27T01:31:38.202Z,65.97
2023-02-27T01:34:07.304Z,65.82
2023-02-27T01:36:38.930Z,66.94
2023-02-27T01:39:06.904Z,66.43
2023-02-27T01:41:37.743Z,66.46
2023-02-27T01:44:12.925Z,65.93
2023-02-27T01:46:45.194Z,66.42
2023-02-27T01:49:27.578Z,66.04
2023-02-27T01:52:04.063Z,66.67
2023-02-27T01:54:44.915Z,67.03
2023-02-27T01:57:13.320Z,66.60
2023-02-27T01:59:44.604Z,66.57
2023-02-27T02:02:19.210Z,67.02
2023-02-27T02:04:48.465Z,66.88
2023-02-27T02:07:22.490Z,66.83
2023-02-27T02:09:54.406Z,66.74
2023-02-27T02:12:31.872Z,67.03
2023-02-27T02:15:12.273Z,67.69
2023-02-27T02:17:54.078Z,67.42
2023-02-27T02:21:03.017Z,67.53
2023-02-27T02:23:58.078Z,66.88
2023-02-27T02:26:39.305Z,67.72
2023-02-27T02:29:44.459Z,67.50
2023-02-27T02:36:07.202Z,67.33
2023-02-27T02:38:54.590Z,67.52
2023-02-27T02:41:34.569Z,67.65
2023-02-27T02:44:08.958Z,67.77
2023-02-27T02:46:48.254Z,67.69
2023-02-27T02:49:27.720Z,67.51
2023-02-27T02:52:04.397Z,67.95
2023-02-27T02:54:41.274Z,68.30
2023-02-27T02:57:17.132Z,68.18
2023-02-27T02:59:52.295Z,67.88
2023-02-27T03:02:24.596Z,67.80
2023-02-27T03:04:57.479Z,67.97
2023-02-27T03:07:36.395Z,67.95
2023-02-27T03:10:13.642Z,67.68
2023-02-27T03:12:48.132Z,67.84
2023-02-27T03:15:21.463Z,67.40
2023-02-27T03:17:55.578Z,67.45
2023-02-27T03:20:39.156Z,67.73
2023-02-27T03:23:16.229Z,67.99
2023-02-27T03:25:54.557Z,67.43
2023-02-27T03:31:32.780Z,67.38
2023-02-27T03:34:10.070Z,67.27
2023-02-27T03:36:48.698Z,67.32
2023-02-27T03:39:40.190Z,67.23
2023-02-27T03:42:24.907Z,67.44
2023-02-27T03:45:02.658Z,67.02
2023-02-27T03:47:36.269Z,67.42
2023-02-27T03:50:05.763Z,66.92
2023-02-27T03:52:37.536Z,66.70
2023-02-27T03:55:13.069Z,67.09
2023-02-27T03:57:44.665Z,67.38
2023-02-27T04:00:19.521Z,67.50
2023-02-27T04:02:50.729Z,67.71
2023-02-27T04:05:21.821Z,67.53
2023-02-27T04:08:03.249Z,68.18
2023-02-27T04:10:57.904Z,67.91
2023-02-27T04:16:53.390Z,67.79
2023-02-27T04:19:49.707Z,67.81
2023-02-27T04:22:32.753Z,68.01
2023-02-27T04:25:25.319Z,68.39
2023-02-27T04:28:16.054Z,68.69
2023-02-27T04:30:56.934Z,68.91
2023-02-27T04:33:39.751Z,69.00
2023-02-27T04:36:14.368Z,69.03
2023-02-27T04:38:49.821Z,69.68
2023-02-27T04:41:24.937Z,69.79
2023-02-27T04:43:55.031Z,69.47
2023-02-27T04:46:30.444Z,69.41
2023-02-27T04:49:02.051Z,69.40
2023-02-27T04:51:36.971Z,69.75
2023-02-27T04:54:12.348Z,69.73
2023-02-27T04:56:45.895Z,69.70
2023-02-27T04:59:19.440Z,69.20
2023-02-27T05:01:59.276Z,70.31
2023-02-27T05:04:31.335Z,69.53
2023-02-27T05:07:03.535Z,70.16
2023-02-27T05:09:44.776Z,70.24
2023-02-27T05:12:18.437Z,69.90
2023-02-27T05:14:52.400Z,70.28
2023-02-27T05:17:29.124Z,70.44
2023-02-27T05:19:59.586Z,70.84
2023-02-27T05:22:40.941Z,70.61
2023-02-27T05:25:16.922Z,70.66
2023-02-27T05:27:53.215Z,70.17
2023-02-27T05:30:27.597Z,70.31
2023-02-27T05:33:00.812Z,70.65
2023-02-27T05:35:36.079Z,70.61
2023-02-27T05:38:16.528Z,71.33
2023-02-27T05:40:50.456Z,71.57
2023-02-27T05:43:22.446Z,72.08
2023-02-27T05:45:57.057Z,71.31
2023-02-27T05:48:32.123Z,71.38
2023-02-27T05:51:01.544Z,71.30
2023-02-27T05:53:35.478Z,71.29
2023-02-27T05:56:08.078Z,71.38
2023-02-27T05:58:41.425Z,71.37
2023-02-27T06:01:12.037Z,71.03
2023-02-27T06:03:46.786Z,71.24
2023-02-27T06:06:18.459Z,71.14
2023-02-27T06:08:47.538Z,70.85
2023-02-27T06:11:18.185Z,71.08
2023-02-27T06:13:46.696Z,70.81
2023-02-27T06:16:17.302Z,71.58
2023-02-27T06:18:48.290Z,71.54
2023-02-27T06:21:16.640Z,71.17
2023-02-27T06:23:45.463Z,71.57
2023-02-27T06:26:14.442Z,71.52
2023-02-27T06:28:44.400Z,71.78
2023-02-27T06:31:13.415Z,71.68
2023-02-27T06:33:43.866Z,71.67
2023-02-27T06:36:24.144Z,71.83
2023-02-27T06:38:53.944Z,71.72
2023-02-27T06:41:24.033Z,71.70
2023-02-27T06:43:52.206Z,71.88
2023-02-27T06:46:21.338Z,72.26
2023-02-27T06:48:49.951Z,71.18
2023-02-27T06:51:23.349Z,71.42
2023-02-27T06:53:54.546Z,71.17
2023-02-27T06:56:24.125Z,71.40
2023-02-27T06:58:52.605Z,71.72
2023-02-27T07:01:20.924Z,71.13
2023-02-27T07:03:49.940Z,71.05
2023-02-27T07:07:32.372Z,70.90
2023-02-27T07:09:15.033Z,71.00
2023-02-27T07:11:43.476Z,70.99
2023-02-27T07:14:13.053Z,70.23
2023-02-27T07:16:43.217Z,71.43
2023-02-27T07:19:11.647Z,71.05
2023-02-27T07:21:42.392Z,70.96
2023-02-27T07:24:10.468Z,70.39
2023-02-27T07:26:39.091Z,70.54
2023-02-27T07:29:09.084Z,70.24
2023-02-27T07:31:39.694Z,69.77
2023-02-27T07:34:09.657Z,70.70
2023-02-27T07:36:41.313Z,69.31
2023-02-27T07:39:12.569Z,70.31
2023-02-27T07:41:41.503Z,69.92
2023-02-27T07:44:32.790Z,70.38
2023-02-27T07:47:06.843Z,69.08
2023-02-27T07:49:40.558Z,69.77
2023-02-27T07:52:11.228Z,69.60
2023-02-27T07:54:41.045Z,69.01
2023-02-27T07:57:08.973Z,69.27
2023-02-27T07:59:37.452Z,69.45
2023-02-27T08:02:08.065Z,68.53
2023-02-27T08:04:37.546Z,68.68
2023-02-27T08:07:06.345Z,68.56
2023-02-27T08:09:40.364Z,68.37
2023-02-27T08:12:10.337Z,68.64
2023-02-27T08:14:39.848Z,68.64
2023-02-27T08:17:09.988Z,67.97
2023-02-27T08:19:41.153Z,67.51
2023-02-27T08:22:09.390Z,67.69
2023-02-27T08:24:40.569Z,67.48
2023-02-27T08:27:09.160Z,66.55
2023-02-27T08:29:45.577Z,66.69
2023-02-27T08:32:15.905Z,66.02
2023-02-27T08:34:48.201Z,66.38
2023-02-27T08:37:20.672Z,65.74
2023-02-27T08:39:50.656Z,65.50
2023-02-27T08:42:19.763Z,66.41
2023-02-27T08:44:50.743Z,65.98
2023-02-27T08:47:22.607Z,65.71
2023-02-27T08:49:51.401Z,63.99
2023-02-27T08:52:20.660Z,63.62
2023-02-27T08:54:53.237Z,62.39
2023-02-27T08:57:24.114Z,62.33
2023-02-27T08:59:52.371Z,61.08
2023-02-27T09:02:23.573Z,61.50
2023-02-27T09:04:55.308Z,60.17
2023-02-27T09:07:23.296Z,60.04
2023-02-27T09:09:57.798Z,58.96
2023-02-27T09:12:26.038Z,58.81
2023-02-27T09:14:56.048Z,58.19
2023-02-27T09:17:25.864Z,57.22
2023-02-27T09:19:57.570Z,56.14
2023-02-27T09:22:26.420Z,55.49
2023-02-27T09:24:57.584Z,55.91
2023-02-27T09:27:26.789Z,54.77
2023-02-27T09:29:57.041Z,55.24
2023-02-27T09:32:27.627Z,55.41
2023-02-27T09:34:58.072Z,55.23
2023-02-27T09:37:28.499Z,55.07
2023-02-27T09:39:59.177Z,53.93
2023-02-27T09:42:36.732Z,53.30
2023-02-27T09:45:08.620Z,53.72
2023-02-27T09:47:41.648Z,53.98
2023-02-27T09:50:35.334Z,55.12
2023-02-27T09:53:03.957Z,55.46
2023-02-27T09:55:40.263Z,55.79
2023-02-27T09:58:26.451Z,56.27
2023-02-27T10:01:08.261Z,55.83
2023-02-27T10:03:55.447Z,55.54
2023-02-27T10:06:28.353Z,55.15
2023-02-27T10:09:07.348Z,55.87
2023-02-27T10:11:52.022Z,55.37
2023-02-27T10:14:33.762Z,55.17
2023-02-27T10:17:06.440Z,54.92
2023-02-27T10:19:38.872Z,55.37
2023-02-27T10:22:14.880Z,54.50
2023-02-27T10:24:53.009Z,54.20
2023-02-27T10:27:24.995Z,53.16
2023-02-27T10:29:58.118Z,52.81
2023-02-27T10:32:33.784Z,53.38
2023-02-27T10:35:11.308Z,53.05
2023-02-27T10:37:50.595Z,52.85
2023-02-27T10:40:20.777Z,52.24
2023-02-27T10:42:52.720Z,52.04
2023-02-27T10:45:21.216Z,51.29
2023-02-27T10:47:52.243Z,51.33
2023-02-27T10:50:30.763Z,51.38
2023-02-27T10:53:02.681Z,51.34
2023-02-27T10:55:33.203Z,51.42
2023-02-27T10:58:05.539Z,51.50
2023-02-27T11:00:50.089Z,51.64
2023-02-27T11:03:22.544Z,50.61
2023-02-27T11:06:00.903Z,50.83
2023-02-27T11:08:33.855Z,51.83
2023-02-27T11:11:04.893Z,51.16
2023-02-27T11:13:45.859Z,51.27
2023-02-27T11:16:19.792Z,50.18
2023-02-27T11:18:50.413Z,50.61
2023-02-27T11:21:32.498Z,50.57
2023-02-27T11:24:06.511Z,49.56
2023-02-27T11:26:37.481Z,49.29
2023-02-27T11:29:09.714Z,48.72
2023-02-27T11:31:38.937Z,48.85
2023-02-27T11:34:10.144Z,48.14
2023-02-27T11:36:50.969Z,47.90
2023-02-27T11:39:30.884Z,47.28
2023-02-27T11:42:07.020Z,47.35
2023-02-27T11:44:57.441Z,46.98
2023-02-27T11:47:31.612Z,47.39
2023-02-27T11:50:36.560Z,46.41
2023-02-27T11:53:20.122Z,46.39
2023-02-27T11:55:50.468Z,45.80
2023-02-27T11:58:23.017Z,45.56
2023-02-27T12:00:59.266Z,46.80
2023-02-27T12:03:41.377Z,46.49
2023-02-27T12:06:21.017Z,46.99
2023-02-27T12:08:54.558Z,46.84
2023-02-27T12:11:29.877Z,46.99
2023-02-27T12:14:20.536Z,47.76
2023-02-27T12:17:06.116Z,47.92
2023-02-27T12:19:41.445Z,47.50
2023-02-27T12:22:19.200Z,45.26
2023-02-27T12:24:54.158Z,44.20
2023-02-27T12:27:27.360Z,44.82
2023-02-27T12:30:04.462Z,43.33
2023-02-27T12:32:40.559Z,43.15
2023-02-27T12:35:22.837Z,43.44
2023-02-27T12:37:52.072Z,42.80
2023-02-27T12:43:28.339Z,43.49
2023-02-27T12:46:14.425Z,43.92
2023-02-27T12:54:37.846Z,43.45
2023-02-27T12:57:21.250Z,44.06
2023-02-27T12:59:59.205Z,43.23
2023-02-27T13:02:47.394Z,43.60
2023-02-27T13:05:44.651Z,42.76
2023-02-27T13:08:27.705Z,43.16
2023-02-27T13:11:06.848Z,43.60
2023-02-27T13:13:40.714Z,42.81
2023-02-27T13:16:18.012Z,41.73
2023-02-27T13:18:51.113Z,42.01
2023-02-27T13:21:37.025Z,42.36
2023-02-27T13:24:19.417Z,41.70
2023-02-27T13:26:57.063Z,40.92
2023-02-27T13:29:34.869Z,40.97
2023-02-27T13:32:27.293Z,40.85
2023-02-27T13:35:13.756Z,41.73
2023-02-27T13:38:03.585Z,40.93
2023-02-27T13:40:38.997Z,40.98
2023-02-27T13:43:40.515Z,41.18
2023-02-27T13:46:26.806Z,40.95
2023-02-27T13:49:29.129Z,40.68
2023-02-27T13:52:00.476Z,40.28
2023-02-27T13:54:36.759Z,41.22
2023-02-27T13:57:29.212Z,39.71
2023-02-27T14:00:08.868Z,38.84
2023-02-27T14:02:58.368Z,39.37
2023-02-27T14:05:39.353Z,39.22
2023-02-27T14:08:15.670Z,39.39
2023-02-27T14:10:58.585Z,39.57
2023-02-27T14:13:59.176Z,40.29
2023-02-27T14:17:06.450Z,41.09
2023-02-27T14:20:02.205Z,41.05
2023-02-27T14:23:03.771Z,41.15
2023-02-27T14:25:39.502Z,41.72
2023-02-27T14:28:19.110Z,40.85
2023-02-27T14:31:01.160Z,39.75
2023-02-27T14:33:40.749Z,39.27
2023-02-27T14:36:18.676Z,38.82
2023-02-27T14:38:47.575Z,39.43
2023-02-27T14:41:32.207Z,41.02
2023-02-27T14:44:01.107Z,41.36
2023-02-27T14:46:37.602Z,41.49
2023-02-27T14:49:22.182Z,41.71
2023-02-27T14:51:52.177Z,41.40
2023-02-27T14:54:23.720Z,41.00
2023-02-27T14:56:56.470Z,41.60
2023-02-27T14:59:29.317Z,41.06
2023-02-27T15:02:02.827Z,40.46
2023-02-27T15:04:34.531Z,39.79
2023-02-27T15:07:04.258Z,40.45
2023-02-27T15:09:43.074Z,40.15
2023-02-27T15:12:18.613Z,39.49
2023-02-27T15:14:58.674Z,39.60
2023-02-27T15:17:39.575Z,39.85
2023-02-27T15:20:30.771Z,38.69
2023-02-27T15:23:00.245Z,38.88
2023-02-27T15:25:33.996Z,39.56
2023-02-27T15:28:07.893Z,39.17
2023-02-27T15:30:39.328Z,40.04
2023-02-27T15:33:16.437Z,40.04
2023-02-27T15:35:47.631Z,40.80
2023-02-27T15:38:26.662Z,40.99
2023-02-27T15:40:57.229Z,41.05
2023-02-27T15:43:31.836Z,41.52
2023-02-27T15:46:00.525Z,41.58
2023-02-27T15:48:31.157Z,41.36
2023-02-27T15:51:17.400Z,41.50
2023-02-27T15:53:53.802Z,42.63
2023-02-27T15:56:27.596Z,42.14
2023-02-27T15:59:00.955Z,42.02
2023-02-27T16:01:32.877Z,42.37
2023-02-27T16:04:03.976Z,42.99
2023-02-27T16:06:45.032Z,42.96
2023-02-27T16:09:24.281Z,44.07
2023-02-27T16:12:22.744Z,43.54
2023-02-27T16:14:54.233Z,44.66
2023-02-27T16:17:29.623Z,44.87
2023-02-27T16:20:04.049Z,44.87
2023-02-27T16:22:42.398Z,44.57
2023-02-27T16:25:15.567Z,44.07
2023-02-27T16:27:53.039Z,44.06
2023-02-27T16:30:23.128Z,44.08
2023-02-27T16:33:01.116Z,44.70
2023-02-27T16:35:39.368Z,44.44
2023-02-27T16:38:15.048Z,44.54
2023-02-27T16:40:46.020Z,44.78
2023-02-27T16:43:19.609Z,44.52
2023-02-27T16:45:52.811Z,44.45
2023-02-27T16:48:21.497Z,45.01
2023-02-27T16:50:53.730Z,44.61
2023-02-27T16:53:26.156Z,44.55
2023-02-27T16:56:09.672Z,45.27
2023-02-27T16:58:41.313Z,43.84
2023-02-27T17:01:09.586Z,43.82
2023-02-27T17:03:41.784Z,43.13
2023-02-27T17:06:14.886Z,43.41
2023-02-27T17:08:45.563Z,43.53
2023-02-27T17:11:18.372Z,43.97
2023-02-27T17:13:46.569Z,44.14
2023-02-27T17:16:17.336Z,43.86
2023-02-27T17:18:46.091Z,44.47
2023-02-27T17:21:22.018Z,45.09
2023-02-27T17:23:53.488Z,44.99
2023-02-27T17:26:23.766Z,45.56
2023-02-27T17:28:58.209Z,45.50
2023-02-27T17:31:29.204Z,46.25
2023-02-27T17:34:00.139Z,46.65
2023-02-27T17:36:29.940Z,46.95
2023-02-27T17:39:04.055Z,47.37
2023-02-27T17:41:36.470Z,46.96
2023-02-27T17:44:06.937Z,48.08
2023-02-27T17:46:42.834Z,48.08
2023-02-27T17:49:13.546Z,47.96
2023-02-27T17:51:42.252Z,47.75
2023-02-27T17:54:12.470Z,47.87
2023-02-27T17:56:44.413Z,47.82
2023-02-27T17:59:13.993Z,48.23
2023-02-27T18:01:44.301Z,48.01
2023-02-27T18:04:12.826Z,48.60
2023-02-27T18:06:42.160Z,48.52
2023-02-27T18:09:13.223Z,48.66
2023-02-27T18:11:42.708Z,49.17
2023-02-27T18:14:10.969Z,49.30
2023-02-27T18:16:42.178Z,49.12
2023-02-27T18:19:11.299Z,48.82
2023-02-27T18:21:39.775Z,49.10
2023-02-27T18:27:53.476Z,49.16
2023-02-27T18:30:22.178Z,49.27
2023-02-27T18:33:00.935Z,48.92
2023-02-27T18:35:34.164Z,48.67
2023-02-27T18:38:04.779Z,49.44
2023-02-27T18:40:33.382Z,49.32
2023-02-27T18:43:09.236Z,49.26
2023-02-27T18:45:40.629Z,49.26
2023-02-27T18:48:13.022Z,49.25
2023-02-27T18:50:42.129Z,50.21
2023-02-27T18:53:11.385Z,50.08
2023-02-27T18:55:47.230Z,50.45
2023-02-27T18:58:18.062Z,50.64
2023-02-27T19:00:50.065Z,50.77
2023-02-27T19:03:19.564Z,51.40
2023-02-27T19:05:48.490Z,51.58
2023-02-27T19:08:20.229Z,51.77
2023-02-27T19:10:55.360Z,51.50
2023-02-27T19:13:28.156Z,52.95
2023-02-27T19:15:58.760Z,52.21
2023-02-27T19:18:28.507Z,52.81
2023-02-27T19:21:06.747Z,53.44
2023-02-27T19:23:36.341Z,54.71
2023-02-27T19:26:04.554Z,54.80
2023-02-27T19:28:36.108Z,54.93
2023-02-27T19:31:11.732Z,54.52
2023-02-27T19:33:41.150Z,54.70
2023-02-27T19:36:20.124Z,54.74
2023-02-27T19:38:48.409Z,54.81
2023-02-27T19:41:17.797Z,54.75
2023-02-27T19:43:49.954Z,55.33
2023-02-27T19:46:20.744Z,54.98
2023-02-27T19:48:49.479Z,55.50
2023-02-27T19:51:20.440Z,55.55
2023-02-27T19:54:13.400Z,55.97
2023-02-27T19:56:43.286Z,56.29
2023-02-27T19:59:15.150Z,55.30
2023-02-27T20:01:43.407Z,55.52
2023-02-27T20:04:14.822Z,56.20
2023-02-27T20:06:44.833Z,55.84
2023-02-27T20:09:16.672Z,56.34
2023-02-27T20:11:46.460Z,57.06
2023-02-27T20:14:20.393Z,56.40
2023-02-27T20:16:57.198Z,56.32
2023-02-27T20:19:26.821Z,56.66
2023-02-27T20:21:57.268Z,56.69
2023-02-27T20:24:27.313Z,55.94
2023-02-27T20:26:59.145Z,56.05
2023-02-27T20:29:29.168Z,56.57
2023-02-27T20:32:01.206Z,56.42
2023-02-27T20:34:31.036Z,56.59
2023-02-27T20:37:00.493Z,56.90
2023-02-27T20:39:31.474Z,56.48
2023-02-27T20:42:03.683Z,56.76
2023-02-27T20:44:33.082Z,56.89
2023-02-27T20:47:04.984Z,57.23
2023-02-27T20:49:35.608Z,57.82
2023-02-27T20:52:04.582Z,58.21
2023-02-27T20:57:19.602Z,58.35
2023-02-27T20:59:51.103Z,58.73
2023-02-27T21:02:21.930Z,58.31
2023-02-27T21:04:53.984Z,58.44
2023-02-27T21:07:22.931Z,59.19
2023-02-27T21:09:55.583Z,59.30
2023-02-27T21:12:23.625Z,59.07
2023-02-27T21:14:54.213Z,59.28
2023-02-27T21:17:23.388Z,58.69
2023-02-27T21:19:52.100Z,59.96
2023-02-27T21:22:23.850Z,59.57
2023-02-27T21:24:53.714Z,60.26
2023-02-27T21:27:26.339Z,60.19
2023-02-27T21:29:56.604Z,60.27
2023-02-27T21:32:25.023Z,59.50
2023-02-27T21:34:53.827Z,60.03
2023-02-27T21:37:22.848Z,59.52
2023-02-27T21:39:55.085Z,59.35
2023-02-27T21:42:25.298Z,60.01
2023-02-27T21:44:58.392Z,61.01
2023-02-27T21:47:29.682Z,60.20
2023-02-27T21:49:59.595Z,60.19
2023-02-27T21:52:28.410Z,58.25
2023-02-27T21:54:59.594Z,59.14
2023-02-27T21:57:31.732Z,58.35
2023-02-27T22:00:02.172Z,59.12
2023-02-27T22:02:30.609Z,59.02
2023-02-27T22:05:00.846Z,58.72
2023-02-27T22:07:31.060Z,59.26
2023-02-27T22:10:00.011Z,59.24
2023-02-27T22:12:28.065Z,59.00
2023-02-27T22:14:56.650Z,58.64
2023-02-27T22:17:26.469Z,59.34
2023-02-27T22:19:58.753Z,59.83
2023-02-27T22:22:28.066Z,59.20
2023-02-27T22:24:57.916Z,59.63
2023-02-27T22:27:25.899Z,59.84
2023-02-27T22:29:54.618Z,60.01
2023-02-27T22:32:29.303Z,60.11
2023-02-27T22:34:59.710Z,60.70
2023-02-27T22:37:29.197Z,59.83
2023-02-27T22:39:57.839Z,60.52
2023-02-27T22:42:26.921Z,60.48
2023-02-27T22:45:04.463Z,59.75
2023-02-27T22:47:36.971Z,60.53
2023-02-27T22:50:06.812Z,60.40
2023-02-27T22:52:41.182Z,59.67
2023-02-27T22:55:10.787Z,60.26
2023-02-27T22:57:38.623Z,60.34
2023-02-27T23:00:12.732Z,60.18
2023-02-27T23:02:44.668Z,59.95
2023-02-27T23:05:12.826Z,59.88
2023-02-27T23:07:44.653Z,60.18
2023-02-27T23:10:15.469Z,60.60
2023-02-27T23:12:43.802Z,59.75
2023-02-27T23:15:12.615Z,60.25
2023-02-27T23:17:56.637Z,60.30
2023-02-27T23:20:29.707Z,59.86
2023-02-27T23:22:59.374Z,60.17
2023-02-27T23:25:27.933Z,60.44
2023-02-27T23:27:56.642Z,60.01
2023-02-27T23:30:28.156Z,60.29
2023-02-27T23:33:00.882Z,60.82
2023-02-27T23:35:33.099Z,61.57
2023-02-27T23:38:04.330Z,61.91
2023-02-27T23:40:34.981Z,62.36
2023-02-27T23:43:04.456Z,62.18
2023-02-27T23:45:35.239Z,62.26
2023-02-27T23:48:08.814Z,63.08
2023-02-27T23:50:39.136Z,63.49
2023-02-27T23:53:10.206Z,63.32
2023-02-27T23:55:40.502Z,62.99
2023-02-27T23:58:11.896Z,63.44
